sensor_id;sensor_type;location;lat;lon;timestamp;P1;durP1;ratioP1;P2;durP2;ratioP2
18239;SDS011;9244;50.828;4.718;2023-12-14T00:01:53;54.77;;;29.57;;
18239;SDS011;9244;50.828;4.718;2023-12-14T00:04:18;52.80;;;29.23;;
18239;SDS011;9244;50.828;4.718;2023-12-14T00:06:47;53.17;;;29.80;;
18239;SDS011;9244;50.828;4.718;2023-12-14T00:09:15;51.33;;;28.80;;
18239;SDS011;9244;50.828;4.718;2023-12-14T00:11:40;54.70;;;30.63;;
18239;SDS011;9244;50.828;4.718;2023-12-14T00:14:06;56.20;;;28.97;;
18239;SDS011;9244;50.828;4.718;2023-12-14T00:16:34;55.73;;;30.40;;
18239;SDS011;9244;50.828;4.718;2023-12-14T00:19:02;53.60;;;30.73;;
18239;SDS011;9244;50.828;4.718;2023-12-14T00:21:28;57.97;;;31.83;;
18239;SDS011;9244;50.828;4.718;2023-12-14T00:24:01;56.87;;;32.10;;
18239;SDS011;9244;50.828;4.718;2023-12-14T00:26:29;59.57;;;31.93;;
18239;SDS011;9244;50.828;4.718;2023-12-14T00:28:54;63.40;;;32.13;;
18239;SDS011;9244;50.828;4.718;2023-12-14T00:31:20;59.03;;;32.63;;
18239;SDS011;9244;50.828;4.718;2023-12-14T00:33:50;61.97;;;32.33;;
18239;SDS011;9244;50.828;4.718;2023-12-14T00:36:19;71.00;;;34.60;;
18239;SDS011;9244;50.828;4.718;2023-12-14T00:38:46;72.33;;;32.23;;
18239;SDS011;9244;50.828;4.718;2023-12-14T00:41:12;63.60;;;33.17;;
18239;SDS011;9244;50.828;4.718;2023-12-14T00:43:38;58.87;;;32.33;;
18239;SDS011;9244;50.828;4.718;2023-12-14T00:46:06;67.43;;;33.13;;
18239;SDS011;9244;50.828;4.718;2023-12-14T00:48:36;62.70;;;32.50;;
18239;SDS011;9244;50.828;4.718;2023-12-14T00:51:06;59.40;;;31.67;;
18239;SDS011;9244;50.828;4.718;2023-12-14T00:53:34;65.23;;;34.90;;
18239;SDS011;9244;50.828;4.718;2023-12-14T00:56:00;63.20;;;34.50;;
18239;SDS011;9244;50.828;4.718;2023-12-14T00:58:25;61.93;;;32.50;;
18239;SDS011;9244;50.828;4.718;2023-12-14T01:00:53;55.30;;;31.10;;
18239;SDS011;9244;50.828;4.718;2023-12-14T01:03:20;62.37;;;32.83;;
18239;SDS011;9244;50.828;4.718;2023-12-14T01:05:48;64.07;;;32.87;;
18239;SDS011;9244;50.828;4.718;2023-12-14T01:08:14;59.60;;;32.70;;
18239;SDS011;9244;50.828;4.718;2023-12-14T01:10:40;62.83;;;32.20;;
18239;SDS011;9244;50.828;4.718;2023-12-14T01:13:08;60.40;;;31.20;;
18239;SDS011;9244;50.828;4.718;2023-12-14T01:15:36;59.80;;;31.33;;
18239;SDS011;9244;50.828;4.718;2023-12-14T01:18:01;61.27;;;31.80;;
18239;SDS011;9244;50.828;4.718;2023-12-14T01:20:27;62.00;;;33.07;;
18239;SDS011;9244;50.828;4.718;2023-12-14T01:22:52;63.10;;;32.53;;
18239;SDS011;9244;50.828;4.718;2023-12-14T01:25:18;60.93;;;31.63;;
18239;SDS011;9244;50.828;4.718;2023-12-14T01:27:46;57.90;;;30.67;;
18239;SDS011;9244;50.828;4.718;2023-12-14T01:30:14;63.80;;;32.90;;
18239;SDS011;9244;50.828;4.718;2023-12-14T01:32:39;69.30;;;32.30;;
18239;SDS011;9244;50.828;4.718;2023-12-14T01:35:07;59.10;;;31.37;;
18239;SDS011;9244;50.828;4.718;2023-12-14T01:37:33;64.83;;;32.33;;
18239;SDS011;9244;50.828;4.718;2023-12-14T01:39:59;68.97;;;33.63;;
18239;SDS011;9244;50.828;4.718;2023-12-14T01:42:24;64.97;;;32.47;;
18239;SDS011;9244;50.828;4.718;2023-12-14T01:44:51;59.57;;;29.97;;
18239;SDS011;9244;50.828;4.718;2023-12-14T01:47:16;66.50;;;31.87;;
18239;SDS011;9244;50.828;4.718;2023-12-14T01:49:44;58.00;;;29.37;;
18239;SDS011;9244;50.828;4.718;2023-12-14T01:52:12;62.20;;;30.60;;
18239;SDS011;9244;50.828;4.718;2023-12-14T01:54:40;59.27;;;29.40;;
18239;SDS011;9244;50.828;4.718;2023-12-14T01:57:08;59.50;;;30.20;;
18239;SDS011;9244;50.828;4.718;2023-12-14T01:59:36;54.03;;;29.30;;
18239;SDS011;9244;50.828;4.718;2023-12-14T02:02:04;58.73;;;28.97;;
18239;SDS011;9244;50.828;4.718;2023-12-14T02:04:32;53.97;;;27.50;;
18239;SDS011;9244;50.828;4.718;2023-12-14T02:06:57;51.00;;;27.90;;
18239;SDS011;9244;50.828;4.718;2023-12-14T02:09:28;52.17;;;28.83;;
18239;SDS011;9244;50.828;4.718;2023-12-14T02:11:56;56.73;;;28.83;;
18239;SDS011;9244;50.828;4.718;2023-12-14T02:14:22;54.80;;;26.73;;
18239;SDS011;9244;50.828;4.718;2023-12-14T02:16:48;58.33;;;28.17;;
18239;SDS011;9244;50.828;4.718;2023-12-14T02:19:14;57.63;;;27.60;;
18239;SDS011;9244;50.828;4.718;2023-12-14T02:21:40;47.43;;;25.10;;
18239;SDS011;9244;50.828;4.718;2023-12-14T02:24:08;44.13;;;23.20;;
18239;SDS011;9244;50.828;4.718;2023-12-14T02:26:33;46.70;;;22.97;;
18239;SDS011;9244;50.828;4.718;2023-12-14T02:28:59;44.90;;;22.53;;
18239;SDS011;9244;50.828;4.718;2023-12-14T02:31:24;49.33;;;24.20;;
18239;SDS011;9244;50.828;4.718;2023-12-14T02:33:50;45.87;;;23.70;;
18239;SDS011;9244;50.828;4.718;2023-12-14T02:36:16;43.30;;;20.80;;
18239;SDS011;9244;50.828;4.718;2023-12-14T02:38:44;44.37;;;22.10;;
18239;SDS011;9244;50.828;4.718;2023-12-14T02:41:10;38.43;;;19.90;;
18239;SDS011;9244;50.828;4.718;2023-12-14T02:43:35;40.43;;;18.70;;
18239;SDS011;9244;50.828;4.718;2023-12-14T02:46:03;32.33;;;18.17;;
18239;SDS011;9244;50.828;4.718;2023-12-14T02:48:33;33.80;;;17.63;;
18239;SDS011;9244;50.828;4.718;2023-12-14T02:50:59;29.23;;;16.73;;
18239;SDS011;9244;50.828;4.718;2023-12-14T02:53:25;32.87;;;17.67;;
18239;SDS011;9244;50.828;4.718;2023-12-14T02:55:50;32.63;;;17.93;;
18239;SDS011;9244;50.828;4.718;2023-12-14T02:58:18;32.80;;;17.70;;
18239;SDS011;9244;50.828;4.718;2023-12-14T03:00:46;32.53;;;17.50;;
18239;SDS011;9244;50.828;4.718;2023-12-14T03:03:15;37.57;;;19.93;;
18239;SDS011;9244;50.828;4.718;2023-12-14T03:05:43;31.77;;;17.93;;
18239;SDS011;9244;50.828;4.718;2023-12-14T03:08:11;37.87;;;20.03;;
18239;SDS011;9244;50.828;4.718;2023-12-14T03:10:39;39.33;;;20.43;;
18239;SDS011;9244;50.828;4.718;2023-12-14T03:13:04;40.30;;;21.00;;
18239;SDS011;9244;50.828;4.718;2023-12-14T03:15:30;35.93;;;20.33;;
18239;SDS011;9244;50.828;4.718;2023-12-14T03:17:55;35.87;;;20.93;;
18239;SDS011;9244;50.828;4.718;2023-12-14T03:20:24;38.33;;;20.07;;
18239;SDS011;9244;50.828;4.718;2023-12-14T03:22:49;36.93;;;20.60;;
18239;SDS011;9244;50.828;4.718;2023-12-14T03:25:17;35.30;;;18.87;;
18239;SDS011;9244;50.828;4.718;2023-12-14T03:27:43;30.47;;;18.43;;
18239;SDS011;9244;50.828;4.718;2023-12-14T03:30:09;34.13;;;18.13;;
18239;SDS011;9244;50.828;4.718;2023-12-14T03:32:37;37.17;;;18.57;;
18239;SDS011;9244;50.828;4.718;2023-12-14T03:35:03;32.73;;;17.77;;
18239;SDS011;9244;50.828;4.718;2023-12-14T03:37:33;30.83;;;17.57;;
18239;SDS011;9244;50.828;4.718;2023-12-14T03:40:03;31.37;;;18.00;;
18239;SDS011;9244;50.828;4.718;2023-12-14T03:42:32;29.07;;;16.07;;
18239;SDS011;9244;50.828;4.718;2023-12-14T03:45:00;26.60;;;16.70;;
18239;SDS011;9244;50.828;4.718;2023-12-14T03:47:29;26.33;;;15.50;;
18239;SDS011;9244;50.828;4.718;2023-12-14T03:49:57;26.93;;;15.23;;
18239;SDS011;9244;50.828;4.718;2023-12-14T03:52:25;29.53;;;16.73;;
18239;SDS011;9244;50.828;4.718;2023-12-14T03:54:53;27.67;;;15.90;;
18239;SDS011;9244;50.828;4.718;2023-12-14T03:57:18;26.73;;;15.07;;
18239;SDS011;9244;50.828;4.718;2023-12-14T03:59:44;25.67;;;16.03;;
18239;SDS011;9244;50.828;4.718;2023-12-14T04:02:12;23.67;;;15.40;;
18239;SDS011;9244;50.828;4.718;2023-12-14T04:04:40;25.57;;;15.40;;
18239;SDS011;9244;50.828;4.718;2023-12-14T04:07:05;25.63;;;15.13;;
18239;SDS011;9244;50.828;4.718;2023-12-14T04:09:31;23.93;;;13.63;;
18239;SDS011;9244;50.828;4.718;2023-12-14T04:11:56;24.07;;;13.77;;
18239;SDS011;9244;50.828;4.718;2023-12-14T04:14:22;25.20;;;15.30;;
18239;SDS011;9244;50.828;4.718;2023-12-14T04:16:48;24.37;;;16.63;;
18239;SDS011;9244;50.828;4.718;2023-12-14T04:19:13;21.77;;;14.60;;
18239;SDS011;9244;50.828;4.718;2023-12-14T04:21:39;27.40;;;17.30;;
18239;SDS011;9244;50.828;4.718;2023-12-14T04:24:05;24.20;;;17.03;;
18239;SDS011;9244;50.828;4.718;2023-12-14T04:26:31;24.70;;;16.33;;
18239;SDS011;9244;50.828;4.718;2023-12-14T04:28:56;24.10;;;14.97;;
18239;SDS011;9244;50.828;4.718;2023-12-14T04:31:24;19.47;;;12.73;;
18239;SDS011;9244;50.828;4.718;2023-12-14T04:33:50;20.07;;;12.97;;
18239;SDS011;9244;50.828;4.718;2023-12-14T04:36:15;19.97;;;12.57;;
18239;SDS011;9244;50.828;4.718;2023-12-14T04:38:41;17.50;;;11.53;;
18239;SDS011;9244;50.828;4.718;2023-12-14T04:41:11;15.47;;;10.73;;
18239;SDS011;9244;50.828;4.718;2023-12-14T04:43:37;16.07;;;10.93;;
18239;SDS011;9244;50.828;4.718;2023-12-14T04:46:02;14.10;;;10.60;;
18239;SDS011;9244;50.828;4.718;2023-12-14T04:48:28;15.80;;;11.83;;
18239;SDS011;9244;50.828;4.718;2023-12-14T04:50:56;15.90;;;12.13;;
18239;SDS011;9244;50.828;4.718;2023-12-14T04:53:22;17.30;;;12.80;;
18239;SDS011;9244;50.828;4.718;2023-12-14T04:55:47;16.60;;;12.37;;
18239;SDS011;9244;50.828;4.718;2023-12-14T04:58:15;17.53;;;12.80;;
18239;SDS011;9244;50.828;4.718;2023-12-14T05:00:43;16.70;;;12.53;;
18239;SDS011;9244;50.828;4.718;2023-12-14T05:03:09;17.33;;;12.17;;
18239;SDS011;9244;50.828;4.718;2023-12-14T05:05:36;16.17;;;12.83;;
18239;SDS011;9244;50.828;4.718;2023-12-14T05:08:01;18.87;;;13.57;;
18239;SDS011;9244;50.828;4.718;2023-12-14T05:10:29;15.37;;;12.83;;
18239;SDS011;9244;50.828;4.718;2023-12-14T05:12:55;17.93;;;14.33;;
18239;SDS011;9244;50.828;4.718;2023-12-14T05:15:21;18.80;;;14.83;;
18239;SDS011;9244;50.828;4.718;2023-12-14T05:17:48;16.43;;;14.47;;
18239;SDS011;9244;50.828;4.718;2023-12-14T05:20:19;20.83;;;14.83;;
18239;SDS011;9244;50.828;4.718;2023-12-14T05:22:45;20.83;;;14.90;;
18239;SDS011;9244;50.828;4.718;2023-12-14T05:25:11;18.60;;;14.47;;
18239;SDS011;9244;50.828;4.718;2023-12-14T05:27:36;16.90;;;13.93;;
18239;SDS011;9244;50.828;4.718;2023-12-14T05:30:02;19.23;;;15.00;;
18239;SDS011;9244;50.828;4.718;2023-12-14T05:32:28;18.00;;;14.57;;
18239;SDS011;9244;50.828;4.718;2023-12-14T05:34:54;18.43;;;14.97;;
18239;SDS011;9244;50.828;4.718;2023-12-14T05:37:20;17.97;;;14.57;;
18239;SDS011;9244;50.828;4.718;2023-12-14T05:39:45;19.37;;;15.93;;
18239;SDS011;9244;50.828;4.718;2023-12-14T05:42:11;21.97;;;15.93;;
18239;SDS011;9244;50.828;4.718;2023-12-14T05:44:41;20.90;;;15.90;;
18239;SDS011;9244;50.828;4.718;2023-12-14T05:47:06;19.87;;;17.00;;
18239;SDS011;9244;50.828;4.718;2023-12-14T05:49:34;18.67;;;15.63;;
18239;SDS011;9244;50.828;4.718;2023-12-14T05:52:02;20.10;;;15.97;;
18239;SDS011;9244;50.828;4.718;2023-12-14T05:54:28;19.80;;;16.20;;
18239;SDS011;9244;50.828;4.718;2023-12-14T05:56:54;20.23;;;16.47;;
18239;SDS011;9244;50.828;4.718;2023-12-14T05:59:19;20.33;;;15.90;;
18239;SDS011;9244;50.828;4.718;2023-12-14T06:01:47;21.33;;;15.77;;
18239;SDS011;9244;50.828;4.718;2023-12-14T06:04:13;20.70;;;16.30;;
18239;SDS011;9244;50.828;4.718;2023-12-14T06:06:38;18.10;;;14.93;;
18239;SDS011;9244;50.828;4.718;2023-12-14T06:09:06;18.47;;;15.77;;
18239;SDS011;9244;50.828;4.718;2023-12-14T06:11:35;19.10;;;15.30;;
18239;SDS011;9244;50.828;4.718;2023-12-14T06:14:03;19.50;;;14.93;;
18239;SDS011;9244;50.828;4.718;2023-12-14T06:16:29;19.10;;;15.80;;
18239;SDS011;9244;50.828;4.718;2023-12-14T06:18:54;22.13;;;16.33;;
18239;SDS011;9244;50.828;4.718;2023-12-14T06:21:20;22.07;;;17.23;;
18239;SDS011;9244;50.828;4.718;2023-12-14T06:23:46;21.70;;;17.47;;
18239;SDS011;9244;50.828;4.718;2023-12-14T06:26:14;21.60;;;16.43;;
18239;SDS011;9244;50.828;4.718;2023-12-14T06:28:39;20.43;;;16.30;;
18239;SDS011;9244;50.828;4.718;2023-12-14T06:31:05;18.07;;;15.57;;
18239;SDS011;9244;50.828;4.718;2023-12-14T06:33:33;20.40;;;16.90;;
18239;SDS011;9244;50.828;4.718;2023-12-14T06:36:02;21.17;;;16.97;;
18239;SDS011;9244;50.828;4.718;2023-12-14T06:38:29;20.00;;;15.97;;
18239;SDS011;9244;50.828;4.718;2023-12-14T06:40:58;18.53;;;14.57;;
18239;SDS011;9244;50.828;4.718;2023-12-14T06:43:27;20.53;;;15.93;;
18239;SDS011;9244;50.828;4.718;2023-12-14T06:45:52;18.90;;;16.10;;
18239;SDS011;9244;50.828;4.718;2023-12-14T06:48:18;19.80;;;16.20;;
18239;SDS011;9244;50.828;4.718;2023-12-14T06:50:45;18.83;;;15.67;;
18239;SDS011;9244;50.828;4.718;2023-12-14T06:53:10;20.70;;;16.37;;
18239;SDS011;9244;50.828;4.718;2023-12-14T06:55:40;18.90;;;15.90;;
18239;SDS011;9244;50.828;4.718;2023-12-14T06:58:08;21.27;;;17.03;;
18239;SDS011;9244;50.828;4.718;2023-12-14T07:00:37;20.27;;;15.43;;
18239;SDS011;9244;50.828;4.718;2023-12-14T07:03:09;20.63;;;15.50;;
18239;SDS011;9244;50.828;4.718;2023-12-14T07:05:35;20.73;;;16.90;;
18239;SDS011;9244;50.828;4.718;2023-12-14T07:08:03;18.77;;;15.83;;
18239;SDS011;9244;50.828;4.718;2023-12-14T07:10:29;19.47;;;15.70;;
18239;SDS011;9244;50.828;4.718;2023-12-14T07:12:55;19.63;;;16.00;;
18239;SDS011;9244;50.828;4.718;2023-12-14T07:15:20;19.23;;;15.63;;
18239;SDS011;9244;50.828;4.718;2023-12-14T07:17:48;18.37;;;15.47;;
18239;SDS011;9244;50.828;4.718;2023-12-14T07:20:14;18.50;;;15.13;;
18239;SDS011;9244;50.828;4.718;2023-12-14T07:22:40;19.67;;;15.97;;
18239;SDS011;9244;50.828;4.718;2023-12-14T07:25:06;19.10;;;15.23;;
18239;SDS011;9244;50.828;4.718;2023-12-14T07:27:33;17.97;;;15.77;;
18239;SDS011;9244;50.828;4.718;2023-12-14T07:30:03;19.60;;;15.70;;
18239;SDS011;9244;50.828;4.718;2023-12-14T07:32:29;20.50;;;15.90;;
18239;SDS011;9244;50.828;4.718;2023-12-14T07:34:57;18.73;;;14.93;;
18239;SDS011;9244;50.828;4.718;2023-12-14T07:37:23;18.90;;;15.93;;
18239;SDS011;9244;50.828;4.718;2023-12-14T07:39:50;19.43;;;16.60;;
18239;SDS011;9244;50.828;4.718;2023-12-14T07:42:18;20.13;;;15.83;;
18239;SDS011;9244;50.828;4.718;2023-12-14T07:44:47;18.80;;;14.97;;
18239;SDS011;9244;50.828;4.718;2023-12-14T07:47:12;22.60;;;15.17;;
18239;SDS011;9244;50.828;4.718;2023-12-14T07:49:38;18.57;;;15.07;;
18239;SDS011;9244;50.828;4.718;2023-12-14T07:52:04;19.17;;;14.97;;
18239;SDS011;9244;50.828;4.718;2023-12-14T07:54:33;19.90;;;13.90;;
18239;SDS011;9244;50.828;4.718;2023-12-14T07:56:58;18.03;;;14.30;;
18239;SDS011;9244;50.828;4.718;2023-12-14T07:59:26;21.87;;;16.00;;
18239;SDS011;9244;50.828;4.718;2023-12-14T08:01:52;20.53;;;15.53;;
18239;SDS011;9244;50.828;4.718;2023-12-14T08:04:18;20.53;;;15.27;;
18239;SDS011;9244;50.828;4.718;2023-12-14T08:06:43;20.90;;;15.50;;
18239;SDS011;9244;50.828;4.718;2023-12-14T08:09:09;23.70;;;16.03;;
18239;SDS011;9244;50.828;4.718;2023-12-14T08:11:37;20.03;;;14.43;;
18239;SDS011;9244;50.828;4.718;2023-12-14T08:14:02;23.60;;;16.50;;
18239;SDS011;9244;50.828;4.718;2023-12-14T08:16:28;21.30;;;15.70;;
18239;SDS011;9244;50.828;4.718;2023-12-14T08:18:54;24.07;;;16.80;;
18239;SDS011;9244;50.828;4.718;2023-12-14T08:21:21;24.40;;;17.30;;
18239;SDS011;9244;50.828;4.718;2023-12-14T08:23:50;25.97;;;16.73;;
18239;SDS011;9244;50.828;4.718;2023-12-14T08:26:15;24.50;;;17.73;;
18239;SDS011;9244;50.828;4.718;2023-12-14T08:28:43;22.63;;;16.90;;
18239;SDS011;9244;50.828;4.718;2023-12-14T08:31:11;24.40;;;16.97;;
18239;SDS011;9244;50.828;4.718;2023-12-14T08:33:44;23.93;;;16.67;;
18239;SDS011;9244;50.828;4.718;2023-12-14T08:36:10;20.80;;;15.70;;
18239;SDS011;9244;50.828;4.718;2023-12-14T08:38:43;22.40;;;16.27;;
18239;SDS011;9244;50.828;4.718;2023-12-14T08:41:12;17.27;;;14.43;;
18239;SDS011;9244;50.828;4.718;2023-12-14T08:43:39;20.23;;;15.70;;
18239;SDS011;9244;50.828;4.718;2023-12-14T08:46:07;19.37;;;15.63;;
18239;SDS011;9244;50.828;4.718;2023-12-14T08:48:33;19.20;;;14.83;;
18239;SDS011;9244;50.828;4.718;2023-12-14T08:51:00;17.90;;;14.23;;
18239;SDS011;9244;50.828;4.718;2023-12-14T08:53:26;19.67;;;14.03;;
18239;SDS011;9244;50.828;4.718;2023-12-14T08:55:53;16.33;;;13.30;;
18239;SDS011;9244;50.828;4.718;2023-12-14T08:58:19;17.00;;;13.50;;
18239;SDS011;9244;50.828;4.718;2023-12-14T09:00:44;14.33;;;12.67;;
18239;SDS011;9244;50.828;4.718;2023-12-14T09:03:11;19.00;;;12.23;;
18239;SDS011;9244;50.828;4.718;2023-12-14T09:05:36;13.13;;;11.70;;
18239;SDS011;9244;50.828;4.718;2023-12-14T09:08:02;13.17;;;11.67;;
18239;SDS011;9244;50.828;4.718;2023-12-14T09:10:28;14.13;;;11.97;;
18239;SDS011;9244;50.828;4.718;2023-12-14T09:12:53;16.97;;;12.37;;
18239;SDS011;9244;50.828;4.718;2023-12-14T09:15:21;14.77;;;12.20;;
18239;SDS011;9244;50.828;4.718;2023-12-14T09:17:49;15.33;;;10.97;;
18239;SDS011;9244;50.828;4.718;2023-12-14T09:20:19;10.93;;;9.70;;
18239;SDS011;9244;50.828;4.718;2023-12-14T09:22:45;12.90;;;10.40;;
18239;SDS011;9244;50.828;4.718;2023-12-14T09:25:10;9.87;;;8.40;;
18239;SDS011;9244;50.828;4.718;2023-12-14T09:27:38;10.93;;;8.70;;
18239;SDS011;9244;50.828;4.718;2023-12-14T09:30:04;10.27;;;8.20;;
18239;SDS011;9244;50.828;4.718;2023-12-14T09:32:30;9.43;;;8.30;;
18239;SDS011;9244;50.828;4.718;2023-12-14T09:34:58;9.97;;;7.90;;
18239;SDS011;9244;50.828;4.718;2023-12-14T09:37:24;9.27;;;8.23;;
18239;SDS011;9244;50.828;4.718;2023-12-14T09:39:53;9.03;;;7.20;;
18239;SDS011;9244;50.828;4.718;2023-12-14T09:42:19;12.50;;;8.13;;
18239;SDS011;9244;50.828;4.718;2023-12-14T09:44:46;11.33;;;8.60;;
18239;SDS011;9244;50.828;4.718;2023-12-14T09:47:13;11.57;;;9.17;;
18239;SDS011;9244;50.828;4.718;2023-12-14T09:49:41;9.47;;;7.93;;
18239;SDS011;9244;50.828;4.718;2023-12-14T09:52:10;8.70;;;7.43;;
18239;SDS011;9244;50.828;4.718;2023-12-14T09:54:36;11.70;;;7.73;;
18239;SDS011;9244;50.828;4.718;2023-12-14T09:57:01;11.63;;;7.63;;
18239;SDS011;9244;50.828;4.718;2023-12-14T09:59:27;9.47;;;6.87;;
18239;SDS011;9244;50.828;4.718;2023-12-14T10:01:53;9.13;;;6.60;;
18239;SDS011;9244;50.828;4.718;2023-12-14T10:04:35;7.97;;;7.17;;
18239;SDS011;9244;50.828;4.718;2023-12-14T10:07:04;9.17;;;7.43;;
18239;SDS011;9244;50.828;4.718;2023-12-14T10:09:32;9.67;;;7.13;;
18239;SDS011;9244;50.828;4.718;2023-12-14T10:12:05;10.60;;;7.53;;
18239;SDS011;9244;50.828;4.718;2023-12-14T10:14:36;10.33;;;7.60;;
18239;SDS011;9244;50.828;4.718;2023-12-14T10:17:19;9.50;;;7.23;;
18239;SDS011;9244;50.828;4.718;2023-12-14T10:19:47;8.13;;;6.60;;
18239;SDS011;9244;50.828;4.718;2023-12-14T10:22:17;7.77;;;6.60;;
18239;SDS011;9244;50.828;4.718;2023-12-14T10:24:46;7.87;;;5.83;;
18239;SDS011;9244;50.828;4.718;2023-12-14T10:27:14;7.00;;;4.83;;
18239;SDS011;9244;50.828;4.718;2023-12-14T10:29:42;7.63;;;5.30;;
18239;SDS011;9244;50.828;4.718;2023-12-14T10:32:10;7.90;;;5.37;;
18239;SDS011;9244;50.828;4.718;2023-12-14T10:34:39;8.23;;;5.30;;
18239;SDS011;9244;50.828;4.718;2023-12-14T10:37:06;9.73;;;5.53;;
18239;SDS011;9244;50.828;4.718;2023-12-14T10:39:37;6.60;;;5.03;;
18239;SDS011;9244;50.828;4.718;2023-12-14T10:42:05;6.90;;;5.70;;
18239;SDS011;9244;50.828;4.718;2023-12-14T10:44:35;8.23;;;5.57;;
18239;SDS011;9244;50.828;4.718;2023-12-14T10:47:03;9.03;;;5.97;;
18239;SDS011;9244;50.828;4.718;2023-12-14T10:49:32;7.33;;;6.33;;
18239;SDS011;9244;50.828;4.718;2023-12-14T10:52:00;8.47;;;6.23;;
18239;SDS011;9244;50.828;4.718;2023-12-14T10:54:28;9.70;;;6.93;;
18239;SDS011;9244;50.828;4.718;2023-12-14T10:56:57;8.40;;;6.90;;
18239;SDS011;9244;50.828;4.718;2023-12-14T10:59:23;9.57;;;7.00;;
18239;SDS011;9244;50.828;4.718;2023-12-14T11:01:54;12.03;;;8.27;;
18239;SDS011;9244;50.828;4.718;2023-12-14T11:04:24;9.93;;;6.53;;
18239;SDS011;9244;50.828;4.718;2023-12-14T11:06:56;10.63;;;7.27;;
18239;SDS011;9244;50.828;4.718;2023-12-14T11:09:22;11.40;;;6.90;;
18239;SDS011;9244;50.828;4.718;2023-12-14T11:14:20;8.97;;;7.23;;
18239;SDS011;9244;50.828;4.718;2023-12-14T11:16:55;11.50;;;8.17;;
18239;SDS011;9244;50.828;4.718;2023-12-14T11:19:24;10.27;;;7.50;;
18239;SDS011;9244;50.828;4.718;2023-12-14T11:24:23;10.70;;;8.50;;
18239;SDS011;9244;50.828;4.718;2023-12-14T11:26:52;11.70;;;8.57;;
18239;SDS011;9244;50.828;4.718;2023-12-14T11:29:19;12.27;;;9.33;;
18239;SDS011;9244;50.828;4.718;2023-12-14T11:31:47;9.90;;;8.60;;
18239;SDS011;9244;50.828;4.718;2023-12-14T11:34:16;11.53;;;9.50;;
18239;SDS011;9244;50.828;4.718;2023-12-14T11:36:44;9.73;;;8.33;;
18239;SDS011;9244;50.828;4.718;2023-12-14T11:39:10;14.37;;;9.00;;
18239;SDS011;9244;50.828;4.718;2023-12-14T11:41:36;10.97;;;8.40;;
18239;SDS011;9244;50.828;4.718;2023-12-14T11:44:06;11.43;;;8.43;;
18239;SDS011;9244;50.828;4.718;2023-12-14T11:46:36;12.80;;;8.07;;
18239;SDS011;9244;50.828;4.718;2023-12-14T11:49:05;8.57;;;7.10;;
18239;SDS011;9244;50.828;4.718;2023-12-14T11:51:32;8.77;;;7.60;;
18239;SDS011;9244;50.828;4.718;2023-12-14T11:54:01;10.20;;;7.87;;
18239;SDS011;9244;50.828;4.718;2023-12-14T11:56:27;13.47;;;7.07;;
18239;SDS011;9244;50.828;4.718;2023-12-14T11:58:58;9.43;;;6.83;;
18239;SDS011;9244;50.828;4.718;2023-12-14T12:01:26;9.03;;;6.47;;
18239;SDS011;9244;50.828;4.718;2023-12-14T12:03:56;8.40;;;6.07;;
18239;SDS011;9244;50.828;4.718;2023-12-14T12:06:33;7.37;;;5.53;;
18239;SDS011;9244;50.828;4.718;2023-12-14T12:08:58;8.23;;;6.13;;
18239;SDS011;9244;50.828;4.718;2023-12-14T12:11:30;7.80;;;5.30;;
18239;SDS011;9244;50.828;4.718;2023-12-14T12:13:56;8.27;;;5.67;;
18239;SDS011;9244;50.828;4.718;2023-12-14T12:16:24;8.33;;;5.40;;
18239;SDS011;9244;50.828;4.718;2023-12-14T12:18:50;9.07;;;5.23;;
18239;SDS011;9244;50.828;4.718;2023-12-14T12:21:19;9.30;;;6.50;;
18239;SDS011;9244;50.828;4.718;2023-12-14T12:23:44;8.27;;;5.23;;
18239;SDS011;9244;50.828;4.718;2023-12-14T12:26:12;8.50;;;5.07;;
18239;SDS011;9244;50.828;4.718;2023-12-14T12:28:38;7.87;;;4.53;;
18239;SDS011;9244;50.828;4.718;2023-12-14T12:31:05;5.87;;;4.70;;
18239;SDS011;9244;50.828;4.718;2023-12-14T12:33:34;8.07;;;5.03;;
18239;SDS011;9244;50.828;4.718;2023-12-14T12:36:02;9.20;;;5.20;;
18239;SDS011;9244;50.828;4.718;2023-12-14T12:38:28;6.97;;;4.90;;
18239;SDS011;9244;50.828;4.718;2023-12-14T12:40:56;11.07;;;5.60;;
18239;SDS011;9244;50.828;4.718;2023-12-14T12:43:24;7.53;;;4.97;;
18239;SDS011;9244;50.828;4.718;2023-12-14T12:45:50;8.80;;;5.13;;
18239;SDS011;9244;50.828;4.718;2023-12-14T12:48:16;6.93;;;5.40;;
18239;SDS011;9244;50.828;4.718;2023-12-14T12:50:44;10.67;;;5.10;;
18239;SDS011;9244;50.828;4.718;2023-12-14T12:53:12;8.53;;;5.70;;
18239;SDS011;9244;50.828;4.718;2023-12-14T12:55:37;9.50;;;5.63;;
18239;SDS011;9244;50.828;4.718;2023-12-14T12:58:03;8.70;;;5.23;;
18239;SDS011;9244;50.828;4.718;2023-12-14T13:00:31;9.80;;;5.20;;
18239;SDS011;9244;50.828;4.718;2023-12-14T13:03:00;10.43;;;5.67;;
18239;SDS011;9244;50.828;4.718;2023-12-14T13:05:27;7.53;;;5.80;;
18239;SDS011;9244;50.828;4.718;2023-12-14T13:07:53;8.80;;;5.83;;
18239;SDS011;9244;50.828;4.718;2023-12-14T13:10:19;9.47;;;5.57;;
18239;SDS011;9244;50.828;4.718;2023-12-14T13:12:51;10.93;;;5.60;;
18239;SDS011;9244;50.828;4.718;2023-12-14T13:15:22;10.70;;;5.37;;
18239;SDS011;9244;50.828;4.718;2023-12-14T13:17:50;10.63;;;5.57;;
18239;SDS011;9244;50.828;4.718;2023-12-14T13:20:16;7.73;;;5.60;;
18239;SDS011;9244;50.828;4.718;2023-12-14T13:22:43;9.23;;;5.37;;
18239;SDS011;9244;50.828;4.718;2023-12-14T13:25:09;8.53;;;5.40;;
18239;SDS011;9244;50.828;4.718;2023-12-14T13:27:37;10.53;;;6.40;;
18239;SDS011;9244;50.828;4.718;2023-12-14T13:30:03;9.23;;;6.63;;
18239;SDS011;9244;50.828;4.718;2023-12-14T13:32:33;9.70;;;6.43;;
18239;SDS011;9244;50.828;4.718;2023-12-14T13:34:59;9.00;;;6.20;;
18239;SDS011;9244;50.828;4.718;2023-12-14T13:37:25;8.10;;;6.23;;
18239;SDS011;9244;50.828;4.718;2023-12-14T13:39:51;9.20;;;5.67;;
18239;SDS011;9244;50.828;4.718;2023-12-14T13:42:18;8.43;;;6.30;;
18239;SDS011;9244;50.828;4.718;2023-12-14T13:44:44;9.20;;;5.80;;
18239;SDS011;9244;50.828;4.718;2023-12-14T13:47:10;10.50;;;6.47;;
18239;SDS011;9244;50.828;4.718;2023-12-14T13:49:36;9.77;;;6.03;;
18239;SDS011;9244;50.828;4.718;2023-12-14T13:52:02;10.83;;;6.47;;
18239;SDS011;9244;50.828;4.718;2023-12-14T13:54:29;9.27;;;6.40;;
18239;SDS011;9244;50.828;4.718;2023-12-14T13:56:55;11.87;;;6.27;;
18239;SDS011;9244;50.828;4.718;2023-12-14T13:59:20;8.97;;;6.23;;
18239;SDS011;9244;50.828;4.718;2023-12-14T14:01:46;12.33;;;6.33;;
18239;SDS011;9244;50.828;4.718;2023-12-14T14:04:15;9.43;;;7.13;;
18239;SDS011;9244;50.828;4.718;2023-12-14T14:06:44;11.90;;;6.57;;
18239;SDS011;9244;50.828;4.718;2023-12-14T14:09:13;11.17;;;6.80;;
18239;SDS011;9244;50.828;4.718;2023-12-14T14:11:41;8.97;;;6.60;;
18239;SDS011;9244;50.828;4.718;2023-12-14T14:14:10;8.93;;;5.57;;
18239;SDS011;9244;50.828;4.718;2023-12-14T14:16:37;12.27;;;7.37;;
18239;SDS011;9244;50.828;4.718;2023-12-14T14:19:05;9.90;;;6.33;;
18239;SDS011;9244;50.828;4.718;2023-12-14T14:21:33;6.73;;;6.00;;
18239;SDS011;9244;50.828;4.718;2023-12-14T14:23:58;9.37;;;6.43;;
18239;SDS011;9244;50.828;4.718;2023-12-14T14:26:26;12.37;;;7.50;;
18239;SDS011;9244;50.828;4.718;2023-12-14T14:28:52;13.57;;;7.60;;
18239;SDS011;9244;50.828;4.718;2023-12-14T14:31:20;10.47;;;7.33;;
18239;SDS011;9244;50.828;4.718;2023-12-14T14:33:46;10.53;;;8.07;;
18239;SDS011;9244;50.828;4.718;2023-12-14T14:36:13;12.10;;;7.17;;
18239;SDS011;9244;50.828;4.718;2023-12-14T14:38:39;9.20;;;7.17;;
18239;SDS011;9244;50.828;4.718;2023-12-14T14:41:04;9.50;;;6.80;;
18239;SDS011;9244;50.828;4.718;2023-12-14T14:43:32;11.30;;;7.60;;
18239;SDS011;9244;50.828;4.718;2023-12-14T14:46:00;10.70;;;7.50;;
18239;SDS011;9244;50.828;4.718;2023-12-14T14:48:26;9.43;;;7.33;;